Time;durP1;ratioP1;P1;durP2;ratioP2;P2;SDS_P1;SDS_P2;PMS_P1;PMS_P2;Temp;Humidity;BMP_temperature;BMP_pressure;BME280_temperature;BME280_humidity;BME280_pressure;Samples;Min_cycle;Max_cycle;Signal;HPM_P1;HPM_P2
2024/03/13 00:01:43;;;;;;;15.80;9.67;;;9.90;99.90;;;;;;4995350;28;20073;-81
2024/03/13 00:04:09;;;;;;;17.97;10.37;;;9.90;99.90;;;;;;4995774;28;20429;-81
2024/03/13 00:06:36;;;;;;;18.10;10.53;;;9.90;99.90;;;;;;5010205;28;20081;-79
2024/03/13 00:09:03;;;;;;;17.13;10.53;;;9.90;99.90;;;;;;4995238;28;20026;-80
2024/03/13 00:11:29;;;;;;;16.33;10.17;;;9.90;99.90;;;;;;4995093;28;20026;-80
2024/03/13 00:13:57;;;;;;;16.00;10.07;;;9.90;99.90;;;;;;4994815;28;20046;-80
2024/03/13 00:16:22;;;;;;;16.80;10.43;;;9.90;99.90;;;;;;4995253;28;20030;-80
2024/03/13 00:18:48;;;;;;;16.30;10.37;;;9.90;99.90;;;;;;4995684;28;20034;-80
2024/03/13 00:21:14;;;;;;;16.03;9.33;;;9.90;99.90;;;;;;4994940;28;20045;-81
2024/03/13 00:23:40;;;;;;;13.20;8.50;;;9.90;99.90;;;;;;4994990;28;20076;-79
2024/03/13 00:26:06;;;;;;;13.40;8.57;;;9.90;99.90;;;;;;4994957;28;20034;-81
2024/03/13 00:28:32;;;;;;;14.83;9.37;;;9.90;99.90;;;;;;5009883;28;20441;-80
2024/03/13 00:30:58;;;;;;;15.33;9.23;;;9.90;99.90;;;;;;4994577;28;20034;-80
2024/03/13 00:33:25;;;;;;;14.37;9.57;;;9.90;99.90;;;;;;4994060;28;20042;-80
2024/03/13 00:35:54;;;;;;;15.10;10.23;;;9.90;99.90;;;;;;5009329;28;20109;-80
2024/03/13 00:38:21;;;;;;;14.20;9.10;;;9.90;99.90;;;;;;4994660;28;20054;-79
2024/03/13 00:40:48;;;;;;;14.73;9.27;;;9.90;99.90;;;;;;4994604;28;20026;-80
2024/03/13 00:43:14;;;;;;;12.87;8.30;;;9.80;99.90;;;;;;5009779;28;20113;-80
2024/03/13 00:45:39;;;;;;;15.57;9.73;;;9.90;99.90;;;;;;4994544;28;20058;-80
2024/03/13 00:48:06;;;;;;;14.97;9.80;;;9.90;99.90;;;;;;4994406;28;20353;-80
2024/03/13 00:50:31;;;;;;;12.73;8.70;;;9.90;99.90;;;;;;4994377;28;20037;-80
2024/03/13 00:52:57;;;;;;;13.80;9.43;;;9.90;99.90;;;;;;4994277;28;20034;-80
2024/03/13 00:55:23;;;;;;;12.97;8.40;;;9.90;99.90;;;;;;4994371;28;20098;-81
2024/03/13 00:57:51;;;;;;;14.30;8.93;;;9.90;99.90;;;;;;4994255;28;20077;-80
2024/03/13 01:00:18;;;;;;;14.60;9.07;;;9.90;99.90;;;;;;5009018;28;20051;-81
2024/03/13 01:02:45;;;;;;;15.23;9.37;;;9.90;99.90;;;;;;5009396;28;20064;-79
2024/03/13 01:05:13;;;;;;;14.50;9.77;;;9.90;99.90;;;;;;4994196;28;20054;-79
2024/03/13 01:07:40;;;;;;;15.13;9.43;;;9.90;99.90;;;;;;4994227;28;20042;-81
2024/03/13 01:10:07;;;;;;;14.70;9.93;;;9.90;99.90;;;;;;4994496;28;20121;-81
2024/03/13 01:12:34;;;;;;;15.50;8.90;;;9.90;99.90;;;;;;4994349;28;20042;-79
2024/03/13 01:15:02;;;;;;;14.83;9.10;;;9.90;99.90;;;;;;4993844;28;20549;-78
2024/03/13 01:17:27;;;;;;;13.05;8.75;;;9.90;99.90;;;;;;4993899;28;20026;-80
2024/03/13 01:19:53;;;;;;;16.10;9.23;;;9.90;99.90;;;;;;4993709;28;20042;-81
2024/03/13 01:22:22;;;;;;;14.47;9.30;;;9.90;99.90;;;;;;4993415;28;20129;-81
2024/03/13 01:24:48;;;;;;;14.47;9.80;;;9.90;99.90;;;;;;4993667;28;20097;-81
2024/03/13 01:27:13;;;;;;;13.80;9.10;;;9.90;99.90;;;;;;5008758;28;20023;-80
2024/03/13 01:29:41;;;;;;;14.33;9.03;;;9.90;99.90;;;;;;4993692;28;20105;-79
2024/03/13 01:32:07;;;;;;;14.80;9.37;;;9.90;99.90;;;;;;5008396;28;20030;-79
2024/03/13 01:34:33;;;;;;;13.05;8.45;;;9.90;99.90;;;;;;4993562;28;20034;-79
2024/03/13 01:39:43;;;;;;;14.32;8.77;;;9.90;99.90;;;;;;4993749;28;20041;-79
2024/03/13 01:54:50;;;;;;;12.93;8.07;;;10.00;99.90;;;;;;4992669;28;20088;-79
2024/03/13 01:56:30;;;;;;;13.00;8.70;;;9.90;99.90;;;;;;4993674;28;20567;-79
2024/03/13 01:59:20;;;;;;;13.13;8.60;;;9.90;99.90;;;;;;4993523;28;20038;-80
2024/03/13 02:04:30;;;;;;;12.65;8.20;;;9.90;99.90;;;;;;4993711;28;20085;-80
2024/03/13 02:06:56;;;;;;;14.20;8.70;;;10.00;99.90;;;;;;5008419;28;20101;-79
2024/03/13 02:09:24;;;;;;;13.80;7.90;;;10.00;99.90;;;;;;4993615;28;20409;-80
2024/03/13 02:11:50;;;;;;;14.83;9.00;;;10.00;99.90;;;;;;5008643;28;20022;-80
2024/03/13 02:14:16;;;;;;;14.87;9.37;;;10.00;99.90;;;;;;4993123;28;20389;-80
2024/03/13 02:16:41;;;;;;;13.00;8.03;;;10.00;99.90;;;;;;4993427;28;20081;-79
2024/03/13 02:19:07;;;;;;;13.27;9.00;;;10.00;99.90;;;;;;4993304;28;20030;-79
2024/03/13 02:21:34;;;;;;;15.43;9.73;;;10.00;99.90;;;;;;4993056;28;20038;-80
2024/03/13 02:24:02;;;;;;;15.27;8.40;;;9.90;99.90;;;;;;4993297;28;20046;-79
2024/03/13 02:26:27;;;;;;;13.80;8.77;;;10.00;99.90;;;;;;4991695;28;20073;-80
2024/03/13 02:28:54;;;;;;;15.80;9.57;;;10.00;99.90;;;;;;4993002;28;20023;-79
2024/03/13 02:31:21;;;;;;;17.87;9.80;;;9.90;99.90;;;;;;5008151;28;20026;-79
2024/03/13 02:33:47;;;;;;;16.83;9.50;;;10.00;99.90;;;;;;5008257;28;20466;-79
2024/03/13 02:36:13;;;;;;;18.57;10.10;;;9.90;99.90;;;;;;4991620;28;20086;-79
2024/03/13 02:38:40;;;;;;;16.67;10.17;;;9.90;99.90;;;;;;4992591;28;20023;-79
2024/03/13 02:41:06;;;;;;;18.13;10.80;;;10.00;99.90;;;;;;4994494;28;20486;-79
2024/03/13 02:43:34;;;;;;;18.93;9.70;;;10.00;99.90;;;;;;4991467;28;20489;-79
2024/03/13 02:46:02;;;;;;;18.70;10.43;;;9.90;99.90;;;;;;4993060;28;20029;-79
2024/03/13 02:48:28;;;;;;;18.23;9.80;;;10.00;99.90;;;;;;4991870;28;20026;-79
2024/03/13 02:50:54;;;;;;;23.03;10.77;;;10.00;99.90;;;;;;5008238;28;20429;-79
2024/03/13 02:53:19;;;;;;;19.93;10.63;;;10.00;99.90;;;;;;4993105;28;20027;-79
2024/03/13 02:55:46;;;;;;;22.80;11.10;;;10.00;99.90;;;;;;5009727;28;20065;-79
2024/03/13 02:58:12;;;;;;;19.90;11.53;;;10.00;99.90;;;;;;4995517;28;20366;-79
2024/03/13 03:00:37;;;;;;;21.30;11.40;;;10.00;99.90;;;;;;4996276;28;20026;-79
2024/03/13 03:03:03;;;;;;;21.07;10.97;;;10.00;99.90;;;;;;4996495;28;20101;-79
2024/03/13 03:05:32;;;;;;;24.63;11.60;;;10.00;99.90;;;;;;4995071;28;20022;-80
2024/03/13 03:07:58;;;;;;;21.30;11.70;;;10.00;99.90;;;;;;4996885;28;20022;-79
2024/03/13 03:10:24;;;;;;;21.13;11.60;;;10.00;99.90;;;;;;4996216;28;20105;-79
2024/03/13 03:12:50;;;;;;;22.40;11.40;;;10.00;99.90;;;;;;4994983;28;20089;-79
2024/03/13 03:15:18;;;;;;;22.95;11.07;;;10.00;99.90;;;;;;4996068;28;20034;-79
2024/03/13 03:17:47;;;;;;;22.03;11.10;;;10.00;99.90;;;;;;4996067;28;20019;-79
2024/03/13 03:20:13;;;;;;;20.80;11.45;;;10.00;99.90;;;;;;5010781;28;20375;-79
2024/03/13 03:22:39;;;;;;;23.60;11.45;;;10.00;99.90;;;;;;5011277;28;20029;-79
2024/03/13 03:25:06;;;;;;;21.33;11.33;;;10.10;99.90;;;;;;5011332;28;20022;-80
2024/03/13 03:27:34;;;;;;;26.27;11.70;;;10.10;99.90;;;;;;4996120;28;20057;-79
2024/03/13 03:30:01;;;;;;;20.02;11.27;;;10.10;99.90;;;;;;5011110;28;20034;-79
2024/03/13 03:32:28;;;;;;;22.00;12.57;;;10.10;99.90;;;;;;4995712;28;20045;-79
2024/03/13 03:34:54;;;;;;;19.87;11.03;;;10.10;99.90;;;;;;4994540;28;20074;-80
2024/03/13 03:37:21;;;;;;;22.05;12.10;;;10.10;99.90;;;;;;4996005;28;20508;-80
2024/03/13 03:39:48;;;;;;;22.17;11.80;;;10.20;99.90;;;;;;4996071;28;20019;-80
2024/03/13 03:42:16;;;;;;;21.70;11.90;;;10.20;99.90;;;;;;4995974;28;20018;-80
2024/03/13 03:44:42;;;;;;;19.92;11.73;;;10.10;99.90;;;;;;4995678;28;20359;-79
2024/03/13 03:47:10;;;;;;;20.57;12.07;;;10.10;99.90;;;;;;5010768;28;20023;-79
2024/03/13 03:49:36;;;;;;;20.05;12.02;;;10.20;99.90;;;;;;4994525;28;20509;-80
2024/03/13 03:52:02;;;;;;;20.33;11.80;;;10.20;99.90;;;;;;4995833;28;20019;-80
2024/03/13 03:54:29;;;;;;;22.83;12.25;;;10.20;99.90;;;;;;4995196;28;20057;-79
2024/03/13 03:56:54;;;;;;;19.00;11.52;;;10.20;99.90;;;;;;4995764;28;20028;-79
2024/03/13 03:59:20;;;;;;;20.15;11.80;;;10.20;99.90;;;;;;4995904;28;20101;-79
2024/03/13 04:01:46;;;;;;;20.00;11.90;;;10.20;99.90;;;;;;4995185;28;20046;-79
2024/03/13 04:04:14;;;;;;;18.52;10.68;;;10.20;99.90;;;;;;4995735;28;20054;-81
2024/03/13 04:06:43;;;;;;;17.47;11.10;;;10.20;99.90;;;;;;4994720;28;20110;-80
2024/03/13 04:09:15;;;;;;;20.92;11.80;;;10.20;99.90;;;;;;4995629;28;20029;-80
2024/03/13 04:11:43;;;;;;;19.10;11.50;;;10.30;99.90;;;;;;4995764;28;20030;-80
2024/03/13 04:14:10;;;;;;;20.63;12.23;;;10.20;99.90;;;;;;4995558;28;20076;-80
2024/03/13 04:16:37;;;;;;;19.83;12.45;;;10.30;99.90;;;;;;4995040;28;20041;-79
2024/03/13 04:19:03;;;;;;;19.05;11.77;;;10.30;99.90;;;;;;4995412;28;20034;-80
2024/03/13 04:21:29;;;;;;;18.80;11.95;;;10.30;99.90;;;;;;4996231;28;20046;-80
2024/03/13 04:23:54;;;;;;;20.13;12.07;;;10.30;99.90;;;;;;4994512;28;20080;-79
2024/03/13 04:26:20;;;;;;;18.88;11.35;;;10.30;99.90;;;;;;5006179;28;20168;-79
2024/03/13 04:28:46;;;;;;;21.30;12.93;;;10.40;99.90;;;;;;4994950;28;20465;-79
2024/03/13 04:31:14;;;;;;;25.20;13.23;;;10.40;99.90;;;;;;4994611;28;20026;-79
2024/03/13 04:33:41;;;;;;;22.77;12.70;;;10.40;99.90;;;;;;5009722;28;20030;-80
2024/03/13 04:36:07;;;;;;;22.55;12.80;;;10.40;99.90;;;;;;4994938;28;20425;-80
2024/03/13 04:38:33;;;;;;;23.15;12.52;;;10.40;99.90;;;;;;5009901;28;20027;-79
2024/03/13 04:40:59;;;;;;;22.00;12.45;;;10.50;99.90;;;;;;5020612;28;20385;-79
2024/03/13 04:43:27;;;;;;;21.52;12.75;;;10.40;99.90;;;;;;4994571;28;20022;-79
2024/03/13 04:45:53;;;;;;;19.83;12.52;;;10.50;99.90;;;;;;4994634;28;20381;-80
2024/03/13 04:48:19;;;;;;;19.00;10.82;;;10.50;99.90;;;;;;4993205;28;20492;-80
2024/03/13 04:50:45;;;;;;;20.20;11.45;;;10.50;99.90;;;;;;4994616;28;20022;-81
2024/03/13 04:53:11;;;;;;;19.17;10.95;;;10.50;99.90;;;;;;5009423;28;20394;-80
2024/03/13 04:55:36;;;;;;;21.20;10.43;;;10.50;99.90;;;;;;4996452;28;20106;-81
2024/03/13 04:58:02;;;;;;;23.17;11.15;;;10.50;99.90;;;;;;5008997;28;20048;-80
2024/03/13 05:00:28;;;;;;;18.27;10.40;;;10.60;99.90;;;;;;5013634;28;20030;-81
2024/03/13 05:02:55;;;;;;;21.27;10.65;;;10.60;99.90;;;;;;5013799;28;20053;-80
2024/03/13 05:05:20;;;;;;;19.40;9.45;;;10.60;99.90;;;;;;5012589;28;20026;-81
2024/03/13 05:07:46;;;;;;;17.48;9.85;;;10.70;99.90;;;;;;5012588;28;20026;-81
2024/03/13 05:10:16;;;;;;;20.60;9.77;;;10.60;99.90;;;;;;5013950;28;20063;-81
2024/03/13 05:12:43;;;;;;;19.30;9.77;;;10.70;99.90;;;;;;5014355;28;20094;-81
2024/03/13 05:15:09;;;;;;;19.70;9.77;;;10.70;99.90;;;;;;5012324;28;20381;-81
2024/03/13 05:17:36;;;;;;;14.77;8.82;;;10.70;99.90;;;;;;5013568;28;20018;-80
2024/03/13 05:20:07;;;;;;;17.73;9.50;;;10.70;99.90;;;;;;5011986;28;20038;-79
2024/03/13 05:22:35;;;;;;;17.33;8.77;;;10.70;99.90;;;;;;5013622;28;20030;-80
2024/03/13 05:25:01;;;;;;;15.18;8.77;;;10.80;99.90;;;;;;5013570;28;20104;-80
2024/03/13 05:27:27;;;;;;;14.05;8.50;;;10.80;99.90;;;;;;5006761;28;20033;-80
2024/03/13 05:29:53;;;;;;;16.17;9.15;;;10.70;99.90;;;;;;4996366;28;20030;-81
2024/03/13 05:32:19;;;;;;;16.85;8.73;;;10.70;99.90;;;;;;4993582;28;20031;-81
2024/03/13 05:34:44;;;;;;;16.45;7.78;;;10.70;99.90;;;;;;5008739;28;20076;-80
2024/03/13 05:37:12;;;;;;;15.68;7.95;;;10.70;99.90;;;;;;4993989;28;20114;-80
2024/03/13 05:39:38;;;;;;;13.77;7.72;;;10.70;99.90;;;;;;5008668;28;20031;-80
2024/03/13 05:42:04;;;;;;;13.30;6.43;;;10.80;99.90;;;;;;5010124;28;20022;-80
2024/03/13 05:44:29;;;;;;;13.90;7.38;;;10.80;99.90;;;;;;4994312;28;20022;-81
2024/03/13 05:46:56;;;;;;;13.82;7.63;;;10.80;99.90;;;;;;4993571;28;20072;-81
2024/03/13 05:49:21;;;;;;;12.75;6.78;;;10.80;99.90;;;;;;4993450;28;20022;-80
2024/03/13 05:51:47;;;;;;;13.30;7.13;;;10.80;99.90;;;;;;4994062;28;20030;-80
2024/03/13 05:54:13;;;;;;;13.13;7.35;;;10.80;99.90;;;;;;4993195;28;20046;-80
2024/03/13 05:56:39;;;;;;;13.18;7.07;;;10.80;99.90;;;;;;4993515;28;20026;-80
2024/03/13 05:59:05;;;;;;;13.77;7.65;;;10.80;99.90;;;;;;4993837;28;20026;-79
2024/03/13 06:01:32;;;;;;;11.35;7.10;;;10.80;99.90;;;;;;4999765;28;20022;-80
2024/03/13 06:03:59;;;;;;;14.07;6.60;;;10.80;99.90;;;;;;4997963;28;20019;-80
2024/03/13 06:06:25;;;;;;;11.85;6.75;;;10.90;99.90;;;;;;4993632;28;20065;-80
2024/03/13 06:08:51;;;;;;;10.95;6.72;;;10.90;99.90;;;;;;4993896;28;20022;-80
2024/03/13 06:11:19;;;;;;;15.02;7.18;;;10.90;99.90;;;;;;4992460;28;20026;-80
2024/03/13 06:13:48;;;;;;;11.82;7.15;;;10.90;99.90;;;;;;5008374;28;20485;-81
2024/03/13 06:16:15;;;;;;;12.30;6.20;;;10.90;99.90;;;;;;4993418;28;20050;-80
2024/03/13 06:18:41;;;;;;;11.18;6.05;;;10.90;99.90;;;;;;5008913;28;20056;-81
2024/03/13 06:21:07;;;;;;;11.38;6.32;;;10.90;99.90;;;;;;4992859;28;20051;-80
2024/03/13 06:23:36;;;;;;;12.40;6.53;;;10.90;99.90;;;;;;4993455;28;20037;-80
2024/03/13 06:26:03;;;;;;;12.77;6.55;;;10.90;99.90;;;;;;4993116;28;20113;-81
2024/03/13 06:31:15;;;;;;;9.48;5.47;;;10.90;99.90;;;;;;5008700;28;20052;-79
2024/03/13 06:33:41;;;;;;;10.95;5.68;;;10.90;99.90;;;;;;5006713;28;20473;-80
2024/03/13 06:36:06;;;;;;;13.90;6.72;;;10.90;99.90;;;;;;5005460;28;20152;-79
2024/03/13 06:38:32;;;;;;;11.05;6.13;;;10.90;99.90;;;;;;5010537;28;20052;-79
2024/03/13 06:40:58;;;;;;;10.20;5.97;;;11.00;99.90;;;;;;5032191;28;20097;-78
2024/03/13 06:43:24;;;;;;;11.57;6.30;;;10.90;99.90;;;;;;5051081;28;20022;-79
2024/03/13 06:45:50;;;;;;;11.10;5.78;;;10.90;99.90;;;;;;5035884;28;20029;-80
2024/03/13 06:48:16;;;;;;;10.43;5.72;;;10.90;99.90;;;;;;5043333;28;20365;-80
2024/03/13 06:50:43;;;;;;;10.48;5.97;;;10.90;99.90;;;;;;5026777;28;20108;-80
2024/03/13 06:53:08;;;;;;;10.88;6.18;;;10.90;99.90;;;;;;5021038;28;20028;-80
2024/03/13 06:55:36;;;;;;;10.18;5.80;;;10.90;99.90;;;;;;5013861;28;20014;-79
2024/03/13 06:58:02;;;;;;;10.02;6.03;;;10.90;99.90;;;;;;5020292;28;20034;-79
2024/03/13 07:00:28;;;;;;;13.25;6.93;;;10.90;99.90;;;;;;5020424;28;20102;-79
2024/03/13 07:02:57;;;;;;;10.13;6.07;;;10.90;99.90;;;;;;5025856;28;20068;-79
2024/03/13 07:05:23;;;;;;;11.52;6.68;;;11.00;99.90;;;;;;5024229;28;20027;-79
2024/03/13 07:07:49;;;;;;;13.85;7.65;;;10.90;99.90;;;;;;5044991;28;20056;-79
2024/03/13 07:10:15;;;;;;;13.95;7.47;;;10.90;99.90;;;;;;5035467;28;20034;-80
2024/03/13 07:12:42;;;;;;;14.38;7.15;;;11.00;99.90;;;;;;5048809;28;20109;-80
2024/03/13 07:15:10;;;;;;;20.20;8.80;;;11.00;99.90;;;;;;5022188;28;20030;-81
2024/03/13 07:17:39;;;;;;;16.00;8.05;;;11.00;99.90;;;;;;5023294;28;20030;-80
2024/03/13 07:20:05;;;;;;;13.15;7.75;;;11.00;99.90;;;;;;5015003;28;20037;-79
2024/03/13 07:22:30;;;;;;;14.07;7.57;;;11.00;99.90;;;;;;5011518;28;20018;-79
2024/03/13 07:24:56;;;;;;;14.50;8.75;;;11.00;99.90;;;;;;5006869;28;20034;-79
2024/03/13 07:27:22;;;;;;;13.93;8.02;;;11.10;99.90;;;;;;5023045;28;20024;-79
2024/03/13 07:29:49;;;;;;;15.88;9.13;;;11.00;99.90;;;;;;5047164;28;20065;-79
2024/03/13 07:32:16;;;;;;;14.88;8.88;;;11.00;99.90;;;;;;5033702;28;20048;-79
2024/03/13 07:34:42;;;;;;;13.65;8.55;;;11.10;99.90;;;;;;5024461;28;20101;-80
2024/03/13 07:37:10;;;;;;;15.95;9.82;;;11.10;99.90;;;;;;5022172;28;20021;-79
2024/03/13 07:39:36;;;;;;;14.52;8.93;;;11.10;99.90;;;;;;5022961;28;20009;-80
2024/03/13 07:42:02;;;;;;;14.15;8.70;;;11.10;99.90;;;;;;5022916;28;20484;-79
2024/03/13 07:44:30;;;;;;;15.68;9.18;;;11.10;99.90;;;;;;5024434;28;20053;-79
2024/03/13 07:46:56;;;;;;;13.25;8.40;;;11.20;99.90;;;;;;5034966;28;20436;-79
2024/03/13 07:49:21;;;;;;;14.25;8.00;;;11.20;99.90;;;;;;5034669;28;20021;-79
2024/03/13 07:51:47;;;;;;;15.40;9.13;;;11.20;99.90;;;;;;5034667;28;20539;-80
2024/03/13 07:54:13;;;;;;;20.00;10.43;;;11.20;99.90;;;;;;5034336;28;20072;-79
2024/03/13 07:56:38;;;;;;;15.27;9.38;;;11.30;99.90;;;;;;5034307;28;20030;-80
2024/03/13 07:59:07;;;;;;;17.33;9.88;;;11.30;99.90;;;;;;5034731;28;20040;-80
2024/03/13 08:01:42;;;;;;;15.85;10.27;;;11.30;99.90;;;;;;5034591;28;20032;-80
2024/03/13 08:04:08;;;;;;;18.17;10.15;;;11.30;99.90;;;;;;5034756;28;20478;-81
2024/03/13 08:06:40;;;;;;;18.52;10.40;;;11.40;99.90;;;;;;5034739;28;20025;-83
2024/03/13 08:09:06;;;;;;;22.92;11.68;;;11.40;99.90;;;;;;5034858;28;20053;-80
2024/03/13 08:11:33;;;;;;;15.50;9.70;;;11.40;99.90;;;;;;5034061;28;20060;-79
2024/03/13 08:14:01;;;;;;;18.42;10.32;;;11.40;99.90;;;;;;5034487;28;20488;-81
2024/03/13 08:16:27;;;;;;;20.27;10.60;;;11.40;99.90;;;;;;5049791;28;20025;-81
2024/03/13 08:18:54;;;;;;;17.45;10.52;;;11.40;99.90;;;;;;5026079;28;20108;-80
2024/03/13 08:21:20;;;;;;;18.52;11.48;;;11.40;99.90;;;;;;5022990;28;20041;-80
2024/03/13 08:23:46;;;;;;;18.40;10.00;;;11.40;99.90;;;;;;5021749;28;20033;-80
2024/03/13 08:26:11;;;;;;;16.65;10.27;;;11.50;99.90;;;;;;5038925;28;20025;-80
2024/03/13 08:28:37;;;;;;;17.40;10.30;;;11.50;99.90;;;;;;5025282;28;20514;-80
2024/03/13 08:31:06;;;;;;;17.67;9.25;;;11.50;99.90;;;;;;5020112;28;20491;-81
2024/03/13 08:33:33;;;;;;;15.93;9.30;;;11.50;99.90;;;;;;5018042;28;20076;-80
2024/03/13 08:36:02;;;;;;;16.88;9.93;;;11.60;99.90;;;;;;5013339;28;20100;-80
2024/03/13 08:38:29;;;;;;;16.95;10.25;;;11.60;99.90;;;;;;5014301;28;20030;-80
2024/03/13 08:40:56;;;;;;;18.58;10.68;;;11.60;99.90;;;;;;5014323;28;20461;-80
2024/03/13 08:43:23;;;;;;;17.85;10.43;;;11.60;99.90;;;;;;5016882;28;20037;-79
2024/03/13 08:45:50;;;;;;;17.33;10.98;;;11.70;99.90;;;;;;5014427;28;20026;-79
2024/03/13 08:48:15;;;;;;;16.30;9.23;;;11.70;99.90;;;;;;5012969;28;20037;-80
2024/03/13 08:50:42;;;;;;;16.58;9.52;;;11.70;99.90;;;;;;5014616;28;20041;-80
2024/03/13 08:53:07;;;;;;;16.23;9.02;;;11.70;99.90;;;;;;5013214;28;20034;-80
2024/03/13 08:55:34;;;;;;;13.35;8.55;;;11.70;99.90;;;;;;5028948;28;20088;-80
2024/03/13 08:58:03;;;;;;;16.52;8.77;;;11.70;99.90;;;;;;5028582;28;20088;-78
2024/03/13 09:00:30;;;;;;;16.25;8.20;;;11.80;99.90;;;;;;5029349;28;20105;-80
2024/03/13 09:02:59;;;;;;;13.15;8.07;;;11.80;99.90;;;;;;5033670;28;20104;-78
2024/03/13 09:05:25;;;;;;;14.63;8.38;;;11.80;99.90;;;;;;5033633;28;20018;-80
2024/03/13 09:07:51;;;;;;;14.75;7.95;;;11.80;99.90;;;;;;5033412;28;20032;-80
2024/03/13 09:10:18;;;;;;;15.50;7.70;;;11.80;99.90;;;;;;5012472;28;20398;-80
2024/03/13 09:12:47;;;;;;;14.65;7.32;;;11.80;99.90;;;;;;4996262;28;20019;-80
2024/03/13 09:15:13;;;;;;;15.70;6.47;;;11.80;99.90;;;;;;5009788;28;20030;-80
2024/03/13 09:17:39;;;;;;;13.55;6.13;;;11.90;99.90;;;;;;4993677;28;20489;-80
2024/03/13 09:20:06;;;;;;;12.80;6.93;;;11.90;99.90;;;;;;5008369;28;20069;-80
2024/03/13 09:22:32;;;;;;;11.20;5.97;;;11.90;99.90;;;;;;4993724;28;20026;-80
2024/03/13 09:24:57;;;;;;;12.98;5.78;;;11.90;99.90;;;;;;4993844;28;20036;-80
2024/03/13 09:27:23;;;;;;;11.77;5.47;;;11.90;99.90;;;;;;4993757;28;20096;-80
2024/03/13 09:29:50;;;;;;;9.60;5.00;;;11.90;99.90;;;;;;5008684;28;20026;-80
2024/03/13 09:32:16;;;;;;;11.45;5.00;;;12.00;99.90;;;;;;5010627;28;20233;-81
2024/03/13 09:34:41;;;;;;;9.75;4.75;;;12.10;99.90;;;;;;5002223;28;20125;-80
2024/03/13 09:37:09;;;;;;;10.70;4.88;;;12.10;99.90;;;;;;4993337;28;20073;-80
2024/03/13 09:39:36;;;;;;;9.27;4.93;;;12.10;99.90;;;;;;5008605;28;20096;-80
2024/03/13 09:42:15;;;;;;;9.82;3.90;;;12.10;99.90;;;;;;5008793;28;20037;-81
2024/03/13 09:44:43;;;;;;;10.13;4.80;;;12.20;99.90;;;;;;4993278;28;20030;-81
2024/03/13 09:47:10;;;;;;;6.82;3.47;;;12.20;99.90;;;;;;5008520;28;20553;-82
2024/03/13 09:49:37;;;;;;;10.57;4.40;;;12.20;99.90;;;;;;5008558;28;20088;-80
2024/03/13 09:52:03;;;;;;;10.50;5.50;;;12.30;99.90;;;;;;4993449;28;20090;-79
2024/03/13 09:54:29;;;;;;;11.75;5.60;;;12.30;99.90;;;;;;4993174;28;20389;-80
2024/03/13 09:56:57;;;;;;;11.77;4.55;;;12.30;99.90;;;;;;4993449;28;20031;-79
2024/03/13 09:59:22;;;;;;;12.27;6.85;;;12.30;99.90;;;;;;4991965;28;20453;-80
2024/03/13 10:01:51;;;;;;;12.07;6.10;;;12.30;99.90;;;;;;5008406;28;20050;-79
2024/03/13 10:04:24;;;;;;;15.52;7.55;;;12.30;99.90;;;;;;4992938;28;20536;-79
2024/03/13 10:06:53;;;;;;;16.50;7.87;;;12.30;99.90;;;;;;4998108;28;20030;-79
2024/03/13 10:09:28;;;;;;;13.35;8.15;;;12.30;99.90;;;;;;4997458;28;20026;-81
2024/03/13 10:12:00;;;;;;;17.17;8.68;;;12.30;99.90;;;;;;5013287;28;20101;-79
2024/03/13 10:14:27;;;;;;;19.85;10.88;;;12.30;99.90;;;;;;4997691;28;20026;-79
2024/03/13 10:16:53;;;;;;;22.60;11.82;;;12.30;99.90;;;;;;4998846;28;20489;-82
2024/03/13 10:19:25;;;;;;;25.83;11.25;;;12.30;99.90;;;;;;5004668;28;20025;-80
2024/03/13 10:21:53;;;;;;;23.35;12.35;;;12.40;99.90;;;;;;5048169;28;20041;-79
2024/03/13 10:24:22;;;;;;;23.58;12.70;;;12.30;99.90;;;;;;5015706;28;20113;-80
2024/03/13 10:26:50;;;;;;;29.80;14.55;;;12.30;99.90;;;;;;5048426;28;20537;-80
2024/03/13 10:29:17;;;;;;;30.45;15.32;;;12.40;99.90;;;;;;5048517;28;20054;-80
2024/03/13 10:31:44;;;;;;;26.27;13.98;;;12.40;99.90;;;;;;5025878;28;20026;-80
2024/03/13 10:34:09;;;;;;;29.27;15.57;;;12.40;99.90;;;;;;5025793;28;20018;-80
2024/03/13 10:36:39;;;;;;;35.47;17.35;;;12.40;99.90;;;;;;5040520;28;20588;-80
2024/03/13 10:39:08;;;;;;;33.88;16.88;;;12.40;99.90;;;;;;5024981;28;20017;-80
2024/03/13 10:41:34;;;;;;;29.15;16.27;;;12.40;99.90;;;;;;5026128;28;20515;-80
2024/03/13 10:44:00;;;;;;;35.03;17.00;;;12.40;99.90;;;;;;5045932;28;20037;-80
2024/03/13 10:46:30;;;;;;;29.35;15.43;;;12.40;99.90;;;;;;5025971;28;20031;-80
2024/03/13 10:48:57;;;;;;;30.77;15.73;;;12.30;99.90;;;;;;5021933;28;20079;-79
2024/03/13 10:51:23;;;;;;;30.15;14.75;;;12.30;99.90;;;;;;5023821;28;20026;-79
2024/03/13 10:53:49;;;;;;;29.48;15.30;;;12.40;99.90;;;;;;5015643;28;20075;-79
2024/03/13 10:56:17;;;;;;;30.67;15.52;;;12.40;99.90;;;;;;5013337;28;20013;-78
2024/03/13 10:58:43;;;;;;;29.58;16.25;;;12.50;99.90;;;;;;5014889;28;20029;-78
2024/03/13 11:01:16;;;;;;;31.63;14.95;;;12.50;99.90;;;;;;5026262;28;20067;-77
2024/03/13 11:04:00;;;;;;;23.58;14.60;;;12.60;99.90;;;;;;5045713;28;20423;-78
2024/03/13 11:06:32;;;;;;;25.15;14.10;;;12.70;99.90;;;;;;5025003;28;20026;-77
2024/03/13 11:09:00;;;;;;;21.45;12.40;;;12.70;99.90;;;;;;5021202;28;20036;-78
2024/03/13 11:11:26;;;;;;;24.05;13.73;;;12.80;99.90;;;;;;5024392;28;20025;-78
2024/03/13 11:13:56;;;;;;;25.40;12.65;;;12.80;99.90;;;;;;5041537;28;20028;-80
2024/03/13 11:16:26;;;;;;;22.02;12.40;;;12.80;99.90;;;;;;5033488;28;20073;-77
2024/03/13 11:18:53;;;;;;;22.52;12.93;;;12.80;99.90;;;;;;5035063;28;20029;-78
2024/03/13 11:21:51;;;;;;;27.50;14.55;;;12.80;99.90;;;;;;5050674;28;20506;-81
2024/03/13 11:24:25;;;;;;;27.55;13.80;;;12.80;99.90;;;;;;5035358;28;20474;-79
2024/03/13 11:27:05;;;;;;;23.17;12.82;;;12.80;99.90;;;;;;5033828;28;20033;-79
2024/03/13 11:29:43;;;;;;;22.70;13.88;;;12.80;99.90;;;;;;5035683;28;20026;-79
2024/03/13 11:32:11;;;;;;;25.58;14.23;;;12.80;99.90;;;;;;5035228;28;20025;-80
2024/03/13 11:34:39;;;;;;;22.33;13.40;;;12.80;99.90;;;;;;5035426;28;20040;-79
2024/03/13 11:37:09;;;;;;;25.75;15.70;;;12.80;99.90;;;;;;5035593;28;20116;-80
2024/03/13 11:39:38;;;;;;;25.05;14.70;;;12.80;99.90;;;;;;5043533;28;20034;-79
2024/03/13 11:42:14;;;;;;;24.85;13.65;;;12.80;99.90;;;;;;5035174;28;20365;-80
2024/03/13 11:44:50;;;;;;;25.35;13.63;;;12.80;99.90;;;;;;5035058;28;20024;-82
2024/03/13 11:47:22;;;;;;;31.00;16.48;;;12.80;99.90;;;;;;5029957;28;20026;-80
2024/03/13 11:49:56;;;;;;;26.25;14.50;;;12.80;99.90;;;;;;5004209;28;20031;-79
2024/03/13 11:52:22;;;;;;;29.17;15.90;;;12.70;99.90;;;;;;4994050;28;20026;-80
2024/03/13 11:54:48;;;;;;;26.75;14.25;;;12.80;99.90;;;;;;4995461;28;20034;-80
2024/03/13 11:57:14;;;;;;;24.02;15.15;;;12.80;99.90;;;;;;4995652;28;20037;-80
2024/03/13 11:59:54;;;;;;;27.58;16.05;;;12.80;99.90;;;;;;5010639;28;20022;-79
2024/03/13 12:02:28;;;;;;;28.08;17.52;;;12.80;99.90;;;;;;4995966;28;20033;-78
2024/03/13 12:05:06;;;;;;;28.05;17.60;;;12.80;99.90;;;;;;5003448;28;20058;-80
2024/03/13 12:07:44;;;;;;;31.25;17.55;;;12.80;99.90;;;;;;5005478;28;20113;-81
2024/03/13 12:10:19;;;;;;;29.55;17.33;;;12.80;99.90;;;;;;5012359;28;20021;-80
2024/03/13 12:12:45;;;;;;;28.05;17.35;;;12.80;99.90;;;;;;5012281;28;20068;-81
2024/03/13 12:15:19;;;;;;;33.20;17.48;;;12.70;99.90;;;;;;5014384;28;20037;-81
2024/03/13 12:17:46;;;;;;;32.70;19.17;;;12.80;99.90;;;;;;5014420;28;20018;-81
2024/03/13 12:20:17;;;;;;;24.65;16.80;;;12.80;99.90;;;;;;5029453;28;20046;-81
2024/03/13 12:22:47;;;;;;;27.30;17.67;;;12.70;99.90;;;;;;5014415;28;20489;-81
2024/03/13 12:25:13;;;;;;;24.65;17.38;;;12.80;99.90;;;;;;5013069;28;20056;-81
2024/03/13 12:27:46;;;;;;;27.75;17.80;;;12.80;99.90;;;;;;5013731;28;20032;-80
2024/03/13 12:30:12;;;;;;;25.45;17.33;;;12.80;99.90;;;;;;5029220;28;20105;-80
2024/03/13 12:32:37;;;;;;;30.85;19.48;;;12.80;99.90;;;;;;5014118;28;20022;-80
2024/03/13 12:35:10;;;;;;;32.63;18.52;;;12.80;99.90;;;;;;5014275;28;20037;-79
2024/03/13 12:37:35;;;;;;;35.22;19.77;;;12.90;99.90;;;;;;5023527;28;20018;-79
2024/03/13 12:40:12;;;;;;;30.60;18.58;;;12.90;99.90;;;;;;5023461;28;20535;-82
2024/03/13 12:42:40;;;;;;;31.15;19.25;;;12.90;99.90;;;;;;5036059;28;20018;-80
2024/03/13 12:45:07;;;;;;;26.98;17.33;;;12.90;99.90;;;;;;5022441;28;20100;-80
2024/03/13 12:47:38;;;;;;;29.67;18.42;;;12.90;99.90;;;;;;5024147;28;20017;-79
2024/03/13 12:50:15;;;;;;;28.85;18.10;;;12.80;99.90;;;;;;5022156;28;20026;-80
2024/03/13 12:52:51;;;;;;;36.42;20.00;;;12.90;99.90;;;;;;5010605;28;20084;-80
2024/03/13 12:55:19;;;;;;;27.67;17.73;;;12.90;99.90;;;;;;5002163;28;20034;-80